Terminal Aerodrome Forecast
Issued by NWS

Home | Current Version | Previous Version | Text Only | Print | Product List | Glossary On
Versions: 1 2 3 4 5 6 7 8 9 10 11 12
000
FTUS45 KGJT 280530
TAFDRO
TAF
KDRO 280530Z 2806/2906 34005KT P6SM VCSH BKN130
     FM281000 36004KT P6SM VCSH BKN070
     FM281800 33008KT P6SM VCTS BKN090CB
     FM282300 05011G19KT P6SM VCTS BKN090CB
     FM290000 09007KT P6SM OVC100
     FM290500 VRB03KT P6SM OVC090=

USA.gov is the U.S. government's official web portal to all federal, state and local government web resources and services.